createdAt,value
2023-04-14T00:02:06.925Z,62.05
2023-04-14T00:04:36.993Z,62.13
2023-04-14T00:07:08.219Z,62.13
2023-04-14T00:09:39.217Z,62.19
2023-04-14T00:12:10.691Z,62.34
2023-04-14T00:14:43.399Z,62.22
2023-04-14T00:17:15.507Z,62.45
2023-04-14T00:19:46.877Z,62.45
2023-04-14T00:22:18.570Z,62.61
2023-04-14T00:24:50.987Z,62.71
2023-04-14T00:27:21.933Z,62.85
2023-04-14T00:29:53.024Z,62.88
2023-04-14T00:32:24.022Z,62.90
2023-04-14T00:35:05.532Z,62.94
2023-04-14T00:37:36.409Z,63.02
2023-04-14T00:40:11.036Z,62.97
2023-04-14T00:42:47.286Z,63.13
2023-04-14T00:45:18.348Z,63.17
2023-04-14T00:47:51.277Z,63.03
2023-04-14T00:50:23.742Z,63.23
2023-04-14T00:52:57.754Z,63.31
2023-04-14T00:55:29.020Z,63.55
2023-04-14T00:58:00.329Z,63.46
2023-04-14T01:00:31.732Z,63.55
2023-04-14T01:03:05.292Z,63.59
2023-04-14T01:05:42.371Z,63.51
2023-04-14T01:08:13.682Z,63.46
2023-04-14T01:10:55.416Z,63.59
2023-04-14T01:13:37.152Z,63.61
2023-04-14T01:16:16.009Z,63.58
2023-04-14T01:18:53.934Z,63.59
2023-04-14T01:21:33.869Z,63.72
2023-04-14T01:24:27.557Z,64.01
2023-04-14T01:27:09.404Z,64.11
2023-04-14T01:29:56.813Z,64.01
2023-04-14T01:32:31.572Z,64.00
2023-04-14T01:35:20.986Z,64.22
2023-04-14T01:45:36.674Z,64.45
2023-04-14T01:48:22.375Z,64.46
2023-04-14T01:50:55.046Z,64.68
2023-04-14T01:53:31.180Z,64.76
2023-04-14T01:56:04.431Z,64.76
2023-04-14T01:58:37.632Z,64.86
2023-04-14T02:01:10.285Z,65.14
2023-04-14T02:03:43.951Z,64.92
2023-04-14T02:06:16.145Z,65.03
2023-04-14T02:08:47.882Z,64.91
2023-04-14T02:11:20.349Z,64.92
2023-04-14T02:13:52.865Z,64.96
2023-04-14T02:16:26.092Z,65.17
2023-04-14T02:18:57.717Z,65.40
2023-04-14T02:21:32.917Z,65.40
2023-04-14T02:24:06.827Z,65.57
2023-04-14T02:26:42.007Z,65.62
2023-04-14T02:29:13.947Z,65.64
2023-04-14T02:31:47.681Z,65.73
2023-04-14T02:34:25.134Z,66.03
2023-04-14T02:36:58.630Z,65.88
2023-04-14T02:39:37.430Z,65.99
2023-04-14T02:42:16.213Z,66.25
2023-04-14T02:44:52.856Z,66.12
2023-04-14T02:47:31.263Z,66.41
2023-04-14T02:50:06.678Z,66.60
2023-04-14T02:52:39.551Z,66.60
2023-04-14T02:55:13.443Z,66.50
2023-04-14T02:57:44.557Z,66.70
2023-04-14T03:00:17.354Z,66.65
2023-04-14T03:02:49.696Z,66.72
2023-04-14T03:05:21.834Z,66.95
2023-04-14T03:07:58.556Z,66.85
2023-04-14T03:10:30.117Z,66.87
2023-04-14T03:13:04.727Z,67.09
2023-04-14T03:15:37.299Z,66.92
2023-04-14T03:21:03.645Z,67.04
2023-04-14T03:23:37.776Z,67.31
2023-04-14T03:26:12.781Z,67.39
2023-04-14T03:28:45.365Z,67.28
2023-04-14T03:31:19.129Z,67.24
2023-04-14T03:33:57.565Z,67.66
2023-04-14T03:36:35.572Z,67.56
2023-04-14T03:39:09.471Z,67.61
2023-04-14T03:41:48.056Z,67.67
2023-04-14T03:44:21.330Z,67.69
2023-04-14T03:46:55.755Z,67.89
2023-04-14T03:49:29.023Z,68.00
2023-04-14T03:52:03.809Z,68.03
2023-04-14T03:54:39.233Z,68.28
2023-04-14T03:57:13.113Z,68.37
2023-04-14T03:59:46.003Z,68.58
2023-04-14T04:02:18.288Z,68.67
2023-04-14T04:04:51.808Z,68.81
2023-04-14T04:07:24.961Z,68.83
2023-04-14T04:09:57.755Z,68.89
2023-04-14T04:12:29.397Z,69.08
2023-04-14T04:15:00.771Z,69.05
2023-04-14T04:17:33.868Z,68.85
2023-04-14T04:20:11.252Z,68.96
2023-04-14T04:22:45.570Z,69.25
2023-04-14T04:25:17.278Z,69.20
2023-04-14T04:27:54.105Z,69.29
2023-04-14T04:30:29.035Z,69.33
2023-04-14T04:33:00.214Z,68.98
2023-04-14T04:35:32.954Z,68.77
2023-04-14T04:38:05.570Z,68.70
2023-04-14T04:40:40.528Z,68.65
2023-04-14T04:43:20.302Z,68.81
2023-04-14T04:46:31.769Z,69.04
2023-04-14T04:49:03.558Z,69.24
2023-04-14T04:51:34.732Z,69.09
2023-04-14T04:54:07.167Z,69.17
2023-04-14T04:56:38.299Z,69.22
2023-04-14T04:59:10.926Z,69.09
2023-04-14T05:01:42.414Z,69.44
2023-04-14T05:04:13.424Z,69.48
2023-04-14T05:06:44.507Z,69.72
2023-04-14T05:09:15.540Z,69.49
2023-04-14T05:11:46.649Z,69.78
2023-04-14T05:14:17.668Z,69.80
2023-04-14T05:16:48.715Z,69.61
2023-04-14T05:19:19.628Z,69.76
2023-04-14T05:21:51.242Z,70.02
2023-04-14T05:24:22.368Z,70.12
2023-04-14T05:27:12.489Z,70.15
2023-04-14T05:29:44.785Z,70.00
2023-04-14T05:32:15.850Z,70.06
2023-04-14T05:34:46.815Z,70.06
2023-04-14T05:37:17.866Z,70.23
2023-04-14T05:39:49.101Z,70.46
2023-04-14T05:42:22.740Z,70.54
2023-04-14T05:44:53.692Z,70.62
2023-04-14T05:47:25.344Z,70.58
2023-04-14T05:49:56.828Z,70.65
2023-04-14T05:52:27.868Z,70.57
2023-04-14T05:54:59.213Z,70.56
2023-04-14T05:57:31.068Z,70.63
2023-04-14T06:00:02.604Z,70.55
2023-04-14T06:02:44.919Z,70.27
2023-04-14T06:05:16.094Z,70.15
2023-04-14T06:07:47.354Z,70.29
2023-04-14T06:10:18.369Z,70.16
2023-04-14T06:12:49.395Z,70.12
2023-04-14T06:15:20.414Z,69.63
2023-04-14T06:17:52.156Z,69.51
2023-04-14T06:20:23.658Z,69.48
2023-04-14T06:22:54.713Z,69.35
2023-04-14T06:25:25.724Z,68.89
2023-04-14T06:27:57.152Z,68.90
2023-04-14T06:30:28.760Z,68.93
2023-04-14T06:33:02.005Z,68.72
2023-04-14T06:35:35.234Z,68.75
2023-04-14T06:38:08.783Z,68.90
2023-04-14T06:40:40.136Z,68.83
2023-04-14T06:43:11.746Z,68.42
2023-04-14T06:45:43.329Z,68.07
2023-04-14T06:48:15.815Z,67.97
2023-04-14T06:50:53.024Z,68.00
2023-04-14T06:53:24.522Z,68.13
2023-04-14T06:56:00.737Z,68.04
2023-04-14T06:58:32.627Z,68.05
2023-04-14T07:01:04.867Z,68.20
2023-04-14T07:03:36.045Z,68.75
2023-04-14T07:06:09.413Z,68.40
2023-04-14T07:08:41.024Z,67.99
2023-04-14T07:11:13.165Z,67.19
2023-04-14T07:13:44.140Z,65.93
2023-04-14T07:16:15.133Z,66.00
2023-04-14T07:18:46.412Z,66.46
2023-04-14T07:21:17.484Z,65.70
2023-04-14T07:23:48.907Z,65.02
2023-04-14T07:26:20.009Z,63.93
2023-04-14T07:28:52.396Z,62.67
2023-04-14T07:31:23.571Z,60.77
2023-04-14T07:33:54.818Z,59.77
2023-04-14T07:36:26.443Z,58.81
2023-04-14T07:38:57.447Z,57.88
2023-04-14T07:41:29.395Z,56.45
2023-04-14T07:44:00.531Z,52.67
2023-04-14T07:46:32.322Z,51.40
2023-04-14T07:50:39.853Z,51.77
2023-04-14T07:53:02.969Z,51.67
2023-04-14T07:55:33.934Z,50.79
2023-04-14T07:58:04.976Z,50.66
2023-04-14T08:00:36.027Z,50.38
2023-04-14T08:03:07.054Z,49.96
2023-04-14T08:05:38.328Z,50.22
2023-04-14T08:08:10.292Z,49.38
2023-04-14T08:10:44.838Z,48.62
2023-04-14T08:13:15.891Z,48.01
2023-04-14T08:15:46.926Z,47.69
2023-04-14T08:18:20.400Z,46.68
2023-04-14T08:20:53.193Z,46.32
2023-04-14T08:23:24.157Z,45.79
2023-04-14T08:25:55.097Z,45.73
2023-04-14T08:28:26.411Z,45.20
2023-04-14T08:30:57.489Z,45.04
2023-04-14T08:33:28.547Z,44.67
2023-04-14T08:36:00.593Z,44.34
2023-04-14T08:38:32.204Z,44.07
2023-04-14T08:41:06.459Z,44.14
2023-04-14T08:43:37.489Z,44.14
2023-04-14T08:46:10.622Z,44.42
2023-04-14T08:48:51.594Z,44.65
2023-04-14T08:51:35.320Z,44.61
2023-04-14T08:54:10.589Z,44.44
2023-04-14T08:56:43.676Z,44.12
2023-04-14T08:59:14.808Z,43.43
2023-04-14T09:02:41.794Z,42.86
2023-04-14T09:05:32.555Z,43.07
2023-04-14T09:08:06.682Z,43.35
2023-04-14T09:10:38.131Z,43.18
2023-04-14T09:13:12.824Z,42.55
2023-04-14T09:15:45.506Z,42.92
2023-04-14T09:18:20.929Z,43.15
2023-04-14T09:21:50.923Z,43.19
2023-04-14T09:23:45.090Z,43.33
2023-04-14T09:26:16.396Z,43.11
2023-04-14T09:28:47.542Z,42.64
2023-04-14T09:31:19.870Z,42.57
2023-04-14T09:33:53.184Z,42.64
2023-04-14T09:36:25.987Z,43.03
2023-04-14T09:39:00.614Z,43.38
2023-04-14T09:46:26.962Z,42.82
2023-04-14T09:49:31.293Z,43.53
2023-04-14T09:52:06.975Z,44.06
2023-04-14T10:02:05.770Z,43.84
2023-04-14T10:04:37.598Z,44.35
2023-04-14T10:07:48.949Z,44.76
2023-04-14T10:10:54.205Z,45.04
2023-04-14T10:17:40.496Z,45.08
2023-04-14T10:21:14.885Z,45.07
2023-04-14T10:23:47.332Z,44.78
2023-04-14T10:26:36.805Z,45.14
2023-04-14T10:30:05.784Z,45.47
2023-04-14T10:53:56.897Z,44.86
2023-04-14T10:56:25.754Z,45.05
2023-04-14T10:58:58.487Z,45.45
2023-04-14T11:01:31.109Z,45.62
2023-04-14T11:04:16.719Z,45.78
2023-04-14T11:07:09.607Z,45.65
2023-04-14T11:09:38.501Z,45.00
2023-04-14T11:12:24.348Z,45.25
2023-04-14T11:15:01.506Z,45.56
2023-04-14T11:17:32.522Z,46.18
2023-04-14T11:20:10.480Z,46.58
2023-04-14T11:22:40.907Z,46.26
2023-04-14T11:25:13.041Z,45.93
2023-04-14T11:27:42.623Z,45.93
2023-04-14T11:30:15.851Z,45.92
2023-04-14T11:32:49.888Z,45.82
2023-04-14T11:35:18.847Z,45.76
2023-04-14T11:37:47.889Z,45.81
2023-04-14T11:40:16.774Z,46.31
2023-04-14T11:43:27.928Z,46.39
2023-04-14T11:45:57.729Z,46.48
2023-04-14T11:52:20.557Z,46.51
2023-04-14T11:54:49.046Z,46.51
2023-04-14T12:01:15.240Z,46.41
2023-04-14T12:03:44.374Z,46.36
2023-04-14T12:07:01.237Z,46.45
2023-04-14T12:09:09.575Z,46.53
2023-04-14T12:11:37.890Z,46.93
2023-04-14T12:14:06.389Z,47.05
2023-04-14T12:16:35.122Z,47.20
2023-04-14T12:19:04.353Z,47.01
2023-04-14T12:21:32.946Z,46.83
2023-04-14T12:24:01.887Z,47.16
2023-04-14T12:26:32.146Z,47.45
2023-04-14T12:29:01.159Z,47.27
2023-04-14T12:31:54.236Z,47.22
2023-04-14T12:34:26.416Z,47.26
2023-04-14T12:36:55.348Z,47.48
2023-04-14T12:39:26.866Z,47.07
2023-04-14T12:41:59.094Z,46.91
2023-04-14T12:44:27.570Z,46.60
2023-04-14T12:47:50.528Z,46.66
2023-04-14T12:50:29.914Z,46.62
2023-04-14T12:57:14.786Z,46.94
2023-04-14T12:59:43.240Z,46.77
2023-04-14T13:02:12.260Z,46.68
2023-04-14T13:04:40.665Z,46.54
2023-04-14T13:07:08.911Z,46.79
2023-04-14T13:12:58.878Z,46.64
2023-04-14T13:16:12.157Z,46.77
2023-04-14T13:18:17.597Z,46.88
2023-04-14T13:20:53.690Z,47.15
2023-04-14T13:23:22.303Z,47.19
2023-04-14T13:25:50.888Z,47.35
2023-04-14T13:28:19.130Z,47.59
2023-04-14T13:30:48.180Z,47.69
2023-04-14T13:33:16.733Z,47.83
2023-04-14T13:35:45.286Z,47.75
2023-04-14T13:38:13.651Z,47.71
2023-04-14T13:45:15.789Z,47.78
2023-04-14T13:47:54.651Z,47.65
2023-04-14T13:53:08.796Z,48.04
2023-04-14T13:55:37.222Z,48.02
2023-04-14T13:59:18.479Z,47.63
2023-04-14T14:02:23.235Z,47.61
2023-04-14T14:05:11.676Z,47.81
2023-04-14T14:07:39.954Z,47.92
2023-04-14T14:10:10.184Z,47.68
2023-04-14T14:12:52.751Z,47.12
2023-04-14T14:15:46.033Z,46.83
2023-04-14T14:18:17.509Z,46.70
2023-04-14T14:20:46.509Z,46.65
2023-04-14T14:23:15.714Z,46.72
2023-04-14T14:25:44.889Z,46.86
2023-04-14T14:28:13.356Z,47.18
2023-04-14T14:30:41.574Z,47.37
2023-04-14T14:33:21.891Z,47.39
2023-04-14T14:35:51.962Z,47.33
2023-04-14T14:38:20.346Z,47.11
2023-04-14T14:40:48.536Z,46.86
2023-04-14T14:43:59.223Z,46.78
2023-04-14T14:46:28.504Z,46.68
2023-04-14T14:48:57.742Z,46.46
2023-04-14T14:51:27.151Z,46.39
2023-04-14T14:54:07.043Z,46.66
2023-04-14T14:56:53.057Z,46.68
2023-04-14T15:00:08.054Z,46.47
2023-04-14T15:02:51.033Z,46.69
2023-04-14T15:05:19.636Z,46.50
2023-04-14T15:07:47.889Z,46.51
2023-04-14T15:10:16.393Z,46.65
2023-04-14T15:13:01.670Z,46.74
2023-04-14T15:15:29.882Z,46.93
2023-04-14T15:17:58.620Z,47.07
2023-04-14T15:20:27.187Z,47.00
2023-04-14T15:22:56.371Z,47.03
2023-04-14T15:25:25.028Z,47.12
2023-04-14T15:27:53.220Z,47.11
2023-04-14T15:30:23.265Z,47.34
2023-04-14T15:32:51.893Z,47.44
2023-04-14T15:35:20.410Z,47.49
2023-04-14T15:38:00.975Z,47.70
2023-04-14T15:40:29.410Z,47.73
2023-04-14T15:43:03.532Z,47.82
2023-04-14T15:45:31.788Z,47.95
2023-04-14T15:48:00.058Z,48.17
2023-04-14T15:50:44.413Z,48.34
2023-04-14T15:53:45.762Z,48.43
2023-04-14T15:56:15.479Z,48.48
2023-04-14T15:58:43.672Z,48.48
2023-04-14T16:01:11.822Z,48.52
2023-04-14T16:03:40.857Z,48.58
2023-04-14T16:06:10.087Z,48.80
2023-04-14T16:08:38.403Z,48.89
2023-04-14T16:11:07.267Z,49.18
2023-04-14T16:13:35.403Z,49.24
2023-04-14T16:16:03.683Z,49.45
2023-04-14T16:18:31.907Z,49.77
2023-04-14T16:21:00.200Z,49.86
2023-04-14T16:23:28.983Z,49.96
2023-04-14T16:25:57.417Z,49.89
2023-04-14T16:28:26.436Z,49.94
2023-04-14T16:30:55.189Z,50.10
2023-04-14T16:33:23.920Z,50.37
2023-04-14T16:35:52.124Z,50.44
2023-04-14T16:38:20.590Z,50.51
2023-04-14T16:40:56.723Z,50.57
2023-04-14T16:43:27.431Z,50.56
2023-04-14T16:46:01.807Z,50.52
2023-04-14T16:48:30.718Z,50.66
2023-04-14T16:51:04.286Z,50.82
2023-04-14T16:53:32.432Z,50.93
2023-04-14T16:56:04.525Z,51.14
2023-04-14T16:58:32.733Z,51.27
2023-04-14T17:01:01.213Z,51.39
2023-04-14T17:03:30.453Z,51.45
2023-04-14T17:05:58.789Z,51.59
2023-04-14T17:08:30.556Z,51.58
2023-04-14T17:11:01.482Z,51.76
2023-04-14T17:13:30.169Z,51.70
2023-04-14T17:16:08.279Z,51.90
2023-04-14T17:18:38.044Z,52.08
2023-04-14T17:21:06.764Z,52.21
2023-04-14T17:23:36.955Z,52.21
2023-04-14T17:26:05.880Z,52.49
2023-04-14T17:28:35.161Z,52.54
2023-04-14T17:31:41.856Z,52.65
2023-04-14T17:34:39.775Z,52.77
2023-04-14T17:37:08.772Z,52.94
2023-04-14T17:43:19.194Z,53.15
2023-04-14T17:45:58.840Z,53.38
2023-04-14T17:48:31.234Z,53.39
2023-04-14T18:09:50.998Z,53.66
2023-04-14T18:12:25.382Z,53.70
2023-04-14T18:19:48.316Z,54.10
2023-04-14T18:22:22.974Z,54.37
2023-04-14T18:25:09.342Z,54.47
2023-04-14T18:39:48.324Z,55.22
2023-04-14T18:46:41.471Z,55.50
2023-04-14T18:56:53.163Z,55.74
2023-04-14T18:59:29.689Z,55.75
2023-04-14T19:02:00.864Z,55.80
2023-04-14T19:04:36.357Z,55.85
2023-04-14T19:07:08.705Z,56.05
2023-04-14T19:09:42.184Z,56.13
2023-04-14T19:12:25.527Z,56.08
2023-04-14T19:14:59.176Z,56.23
2023-04-14T19:17:36.267Z,56.32
2023-04-14T19:20:11.961Z,56.31
2023-04-14T19:22:42.994Z,56.42
2023-04-14T19:26:20.285Z,56.45
2023-04-14T19:28:53.063Z,56.37
2023-04-14T19:31:27.644Z,56.51
2023-04-14T19:33:58.808Z,56.60
2023-04-14T19:36:32.431Z,56.57
2023-04-14T19:39:04.128Z,56.53
2023-04-14T19:45:32.423Z,56.64
2023-04-14T19:48:10.095Z,56.66
2023-04-14T19:50:52.193Z,56.66
2023-04-14T19:53:24.510Z,56.82
2023-04-14T19:55:58.176Z,56.78
2023-04-14T19:58:33.338Z,56.77
2023-04-14T20:01:07.268Z,56.78
2023-04-14T20:03:38.697Z,56.97
2023-04-14T20:06:29.724Z,57.02
2023-04-14T20:09:02.161Z,57.03
2023-04-14T20:11:37.261Z,57.00
2023-04-14T20:14:08.468Z,57.18
2023-04-14T20:16:40.857Z,57.34
2023-04-14T20:19:13.907Z,57.24
2023-04-14T20:21:45.034Z,57.40
2023-04-14T20:24:17.860Z,57.37
2023-04-14T20:26:49.009Z,57.43
2023-04-14T20:29:20.236Z,57.50
2023-04-14T20:31:51.583Z,57.73
2023-04-14T20:34:23.239Z,57.59
2023-04-14T20:36:57.326Z,57.89
2023-04-14T20:39:28.455Z,57.90
2023-04-14T20:42:03.283Z,57.86
2023-04-14T20:44:34.512Z,57.85
2023-04-14T20:47:17.456Z,57.87
2023-04-14T20:54:28.532Z,58.07
2023-04-14T20:57:03.668Z,58.14
2023-04-14T20:59:44.954Z,58.29
2023-04-14T21:02:37.477Z,58.32
2023-04-14T21:05:17.884Z,58.41
2023-04-14T21:07:51.293Z,58.37
2023-04-14T21:10:22.541Z,58.26
2023-04-14T21:15:28.256Z,58.46
2023-04-14T21:15:54.514Z,58.59
2023-04-14T21:18:27.723Z,58.67
2023-04-14T21:21:00.904Z,58.61
2023-04-14T21:23:32.260Z,58.75
2023-04-14T21:26:03.468Z,58.66
2023-04-14T21:28:35.657Z,58.94
2023-04-14T21:31:07.993Z,58.80
2023-04-14T21:33:39.706Z,58.84
2023-04-14T21:36:13.624Z,58.99
2023-04-14T21:38:45.391Z,59.11
2023-04-14T21:41:16.692Z,59.10
2023-04-14T21:43:48.011Z,59.16
2023-04-14T21:46:27.452Z,59.31
2023-04-14T21:49:02.159Z,59.17
2023-04-14T21:51:45.565Z,59.40
2023-04-14T21:54:22.486Z,59.31
2023-04-14T21:56:53.910Z,59.45
2023-04-14T21:59:25.515Z,59.56
2023-04-14T22:01:57.435Z,59.55
2023-04-14T22:04:36.638Z,59.60
2023-04-14T22:07:08.896Z,59.66
2023-04-14T22:09:41.619Z,59.54
2023-04-14T22:12:30.555Z,59.80
2023-04-14T22:15:06.682Z,59.76
2023-04-14T22:17:39.725Z,59.70
2023-04-14T22:20:15.889Z,59.85
2023-04-14T22:23:13.814Z,59.87
2023-04-14T22:26:03.643Z,59.94
2023-04-14T22:28:35.194Z,59.92
2023-04-14T22:31:23.023Z,60.08
2023-04-14T22:33:54.162Z,60.05
2023-04-14T22:36:25.964Z,60.06
2023-04-14T22:38:57.206Z,60.07
2023-04-14T22:41:28.447Z,60.14
2023-04-14T22:43:59.496Z,60.12
2023-04-14T22:46:31.051Z,60.42
2023-04-14T22:49:02.371Z,60.22
2023-04-14T22:51:33.707Z,60.23
2023-04-14T22:54:04.968Z,60.28
2023-04-14T22:56:37.338Z,60.26
2023-04-14T22:59:09.038Z,60.48
2023-04-14T23:01:40.256Z,60.43
2023-04-14T23:04:11.537Z,60.38
2023-04-14T23:06:43.850Z,60.50
2023-04-14T23:09:15.546Z,60.56
2023-04-14T23:11:46.929Z,60.45
2023-04-14T23:14:18.103Z,60.49
2023-04-14T23:16:49.393Z,60.60
2023-04-14T23:19:20.784Z,60.66
2023-04-14T23:21:52.621Z,60.68
2023-04-14T23:24:23.883Z,60.63
2023-04-14T23:26:55.111Z,60.82
2023-04-14T23:29:26.616Z,60.73
2023-04-14T23:31:57.892Z,60.85
2023-04-14T23:34:29.943Z,60.86
2023-04-14T23:37:01.114Z,61.04
2023-04-14T23:39:32.817Z,61.12
2023-04-14T23:42:04.509Z,61.09
2023-04-14T23:44:35.658Z,61.06
2023-04-14T23:47:08.518Z,61.10
2023-04-14T23:49:39.894Z,61.06
2023-04-14T23:52:11.444Z,60.99
2023-04-14T23:54:42.962Z,61.00
2023-04-14T23:57:14.074Z,61.13
2023-04-14T23:59:45.756Z,61.07
